createdAt,value
2023-02-08T00:00:54.057Z,-0.70
2023-02-08T00:03:20.889Z,-0.70
2023-02-08T00:05:47.740Z,-0.70
2023-02-08T00:08:14.508Z,-0.80
2023-02-08T00:10:41.638Z,-0.80
2023-02-08T00:13:08.831Z,-0.90
2023-02-08T00:15:36.123Z,-1.00
2023-02-08T00:18:02.924Z,-1.00
2023-02-08T00:20:29.696Z,-1.00
2023-02-08T00:22:56.544Z,-1.00
2023-02-08T00:25:23.293Z,-1.00
2023-02-08T00:27:50.067Z,-1.10
2023-02-08T00:30:16.958Z,-1.10
2023-02-08T00:32:43.740Z,-1.10
2023-02-08T00:35:10.609Z,-1.20
2023-02-08T00:37:37.440Z,-1.20
2023-02-08T00:40:05.818Z,-1.20
2023-02-08T00:42:32.703Z,-1.30
2023-02-08T00:44:59.554Z,-1.30
2023-02-08T00:47:26.323Z,-1.30
2023-02-08T00:49:53.106Z,-1.30
2023-02-08T00:52:20.465Z,-1.30
2023-02-08T00:54:47.626Z,-1.30
2023-02-08T00:57:15.015Z,-1.30
2023-02-08T00:59:41.864Z,-1.30
2023-02-08T01:02:08.695Z,-1.40
2023-02-08T01:04:35.835Z,-1.40
2023-02-08T01:07:02.607Z,-1.40
2023-02-08T01:09:29.394Z,-1.40
2023-02-08T01:11:56.343Z,-1.40
2023-02-08T01:14:23.222Z,-1.50
2023-02-08T01:16:50.040Z,-1.60
2023-02-08T01:19:17.332Z,-1.50
2023-02-08T01:21:44.323Z,-1.50
2023-02-08T01:24:12.134Z,-1.60
2023-02-08T01:26:39.068Z,-1.60
2023-02-08T01:29:06.007Z,-1.50
2023-02-08T01:31:35.857Z,-1.50
2023-02-08T01:34:03.480Z,-1.50
2023-02-08T01:36:31.443Z,-1.60
2023-02-08T01:38:58.437Z,-1.60
2023-02-08T01:41:31.795Z,-1.60
2023-02-08T01:44:19.322Z,-1.60
2023-02-08T01:46:49.077Z,-1.60
2023-02-08T01:49:26.590Z,-1.70
2023-02-08T01:51:54.279Z,-1.70
2023-02-08T01:54:23.005Z,-1.70
2023-02-08T01:56:50.268Z,-1.70
2023-02-08T01:59:21.633Z,-1.70
2023-02-08T02:01:49.401Z,-1.80
2023-02-08T02:04:16.660Z,-1.80
2023-02-08T02:06:47.176Z,-1.80
2023-02-08T02:09:25.494Z,-1.80
2023-02-08T02:11:54.097Z,-1.80
2023-02-08T02:14:21.849Z,-1.90
2023-02-08T02:16:48.903Z,-1.80
2023-02-08T02:19:54.657Z,-1.90
2023-02-08T02:22:46.540Z,-1.90
2023-02-08T02:26:01.463Z,-1.90
2023-02-08T02:28:28.275Z,-1.90
2023-02-08T02:31:34.869Z,-1.90
2023-02-08T02:34:03.678Z,-1.90
2023-02-08T02:37:13.840Z,-2.00
2023-02-08T02:40:09.818Z,-2.00
2023-02-08T02:43:13.747Z,-2.00
2023-02-08T02:45:50.709Z,-2.00
2023-02-08T02:48:24.152Z,-2.10
2023-02-08T02:51:11.342Z,-2.10
2023-02-08T02:53:48.576Z,-2.10
2023-02-08T02:56:22.313Z,-2.10
2023-02-08T02:58:50.281Z,-2.10
2023-02-08T03:01:27.140Z,-2.20
2023-02-08T03:03:54.538Z,-2.10
2023-02-08T03:06:57.033Z,-2.10
2023-02-08T03:09:39.654Z,-2.10
2023-02-08T03:12:45.410Z,-2.10
2023-02-08T03:15:23.827Z,-2.20
2023-02-08T03:18:20.203Z,-2.20
2023-02-08T03:21:04.594Z,-2.20
2023-02-08T03:23:37.191Z,-2.20
2023-02-08T03:26:19.231Z,-2.20
2023-02-08T03:29:13.928Z,-2.30
2023-02-08T03:31:48.519Z,-2.30
2023-02-08T03:34:37.671Z,-2.30
2023-02-08T03:37:33.126Z,-2.30
2023-02-08T03:40:04.792Z,-2.30
2023-02-08T03:42:32.563Z,-2.40
2023-02-08T03:45:02.140Z,-2.40
2023-02-08T03:47:34.292Z,-2.40
2023-02-08T03:50:05.444Z,-2.40
2023-02-08T03:52:32.828Z,-2.40
2023-02-08T03:55:03.983Z,-2.40
2023-02-08T03:57:35.451Z,-2.40
2023-02-08T04:00:07.417Z,-2.40
2023-02-08T04:02:38.963Z,-2.40
2023-02-08T04:05:06.380Z,-2.50
2023-02-08T04:07:33.192Z,-2.50
2023-02-08T04:09:59.970Z,-2.50
2023-02-08T04:12:26.781Z,-2.50
2023-02-08T04:14:53.806Z,-2.50
2023-02-08T04:17:21.367Z,-2.50
2023-02-08T04:19:48.114Z,-2.50
2023-02-08T04:22:14.875Z,-2.50
2023-02-08T04:24:41.643Z,-2.50
2023-02-08T04:27:08.556Z,-2.50
2023-02-08T04:29:35.346Z,-2.60
2023-02-08T04:32:02.567Z,-2.60
2023-02-08T04:34:29.312Z,-2.60
2023-02-08T04:36:56.127Z,-2.60
2023-02-08T04:39:22.889Z,-2.60
2023-02-08T04:41:49.673Z,-2.60
2023-02-08T04:44:16.496Z,-2.60
2023-02-08T04:46:43.363Z,-2.70
2023-02-08T04:49:10.547Z,-2.60
2023-02-08T04:51:37.576Z,-2.70
2023-02-08T04:54:04.432Z,-2.70
2023-02-08T04:56:31.280Z,-2.70
2023-02-08T04:58:58.048Z,-2.70
2023-02-08T05:01:24.838Z,-2.80
2023-02-08T05:03:51.606Z,-2.80
2023-02-08T05:06:18.365Z,-2.80
2023-02-08T05:08:45.311Z,-2.80
2023-02-08T05:11:13.382Z,-2.80
2023-02-08T05:13:40.159Z,-2.80
2023-02-08T05:16:07.010Z,-2.90
2023-02-08T05:18:33.960Z,-2.80
2023-02-08T05:21:01.309Z,-2.90
2023-02-08T05:23:28.381Z,-2.90
2023-02-08T05:25:55.213Z,-2.90
2023-02-08T05:28:22.319Z,-2.90
2023-02-08T05:30:49.485Z,-2.90
2023-02-08T05:33:16.621Z,-2.90
2023-02-08T05:35:45.059Z,-2.90
2023-02-08T05:38:11.918Z,-2.90
2023-02-08T05:40:38.948Z,-2.90
2023-02-08T05:43:05.863Z,-2.90
2023-02-08T05:45:32.784Z,-2.90
2023-02-08T05:47:59.578Z,-3.00
2023-02-08T05:50:26.366Z,-3.00
2023-02-08T05:52:53.140Z,-3.00
2023-02-08T05:55:19.943Z,-3.00
2023-02-08T05:57:46.713Z,-3.00
2023-02-08T06:00:14.133Z,-3.00
2023-02-08T06:02:40.908Z,-3.00
2023-02-08T06:05:08.044Z,-3.00
2023-02-08T06:07:34.816Z,-3.00
2023-02-08T06:10:01.619Z,-3.10
2023-02-08T06:12:28.363Z,-3.00
2023-02-08T06:14:55.113Z,-3.00
2023-02-08T06:17:22.030Z,-3.00
2023-02-08T06:19:48.799Z,-3.00
2023-02-08T06:22:15.585Z,-3.00
2023-02-08T06:24:42.641Z,-3.00
2023-02-08T06:27:09.584Z,-3.00
2023-02-08T06:29:36.400Z,-3.00
2023-02-08T06:32:03.208Z,-3.00
2023-02-08T06:34:30.051Z,-3.10
2023-02-08T06:36:57.378Z,-3.00
2023-02-08T06:39:24.402Z,-3.10
2023-02-08T06:41:51.201Z,-3.10
2023-02-08T06:44:18.146Z,-3.10
2023-02-08T06:46:44.925Z,-3.10
2023-02-08T06:49:11.668Z,-3.10
2023-02-08T06:51:38.512Z,-3.10
2023-02-08T06:54:05.305Z,-3.10
2023-02-08T06:56:32.156Z,-3.10
2023-02-08T06:58:58.946Z,-3.20
2023-02-08T07:01:25.793Z,-3.20
2023-02-08T07:03:52.603Z,-3.20
2023-02-08T07:06:20.405Z,-3.20
2023-02-08T07:08:47.677Z,-3.20
2023-02-08T07:11:16.973Z,-3.20
2023-02-08T07:13:47.801Z,-3.20
2023-02-08T07:16:14.832Z,-3.20
2023-02-08T07:18:41.634Z,-3.20
2023-02-08T07:21:08.493Z,-3.20
2023-02-08T07:23:35.304Z,-3.20
2023-02-08T07:26:07.583Z,-3.20
2023-02-08T07:28:34.849Z,-3.20
2023-02-08T07:31:06.298Z,-3.20
2023-02-08T07:33:33.162Z,-3.20
2023-02-08T07:36:00.165Z,-3.20
2023-02-08T07:38:27.075Z,-3.20
2023-02-08T07:41:00.826Z,-3.20
2023-02-08T07:43:27.913Z,-3.20
2023-02-08T07:45:55.112Z,-3.20
2023-02-08T07:48:21.912Z,-3.20
2023-02-08T07:50:49.051Z,-3.20
2023-02-08T07:53:16.696Z,-3.10
2023-02-08T07:55:45.659Z,-3.10
2023-02-08T07:58:12.655Z,-3.10
2023-02-08T08:00:39.720Z,-3.10
2023-02-08T08:03:06.763Z,-3.00
2023-02-08T08:05:33.863Z,-3.00
2023-02-08T08:08:00.656Z,-3.00
2023-02-08T08:10:27.465Z,-2.90
2023-02-08T08:12:54.353Z,-2.80
2023-02-08T08:15:21.116Z,-2.80
2023-02-08T08:17:47.912Z,-2.80
2023-02-08T08:20:14.672Z,-2.70
2023-02-08T08:22:41.459Z,-2.60
2023-02-08T08:25:08.414Z,-2.70
2023-02-08T08:27:35.271Z,-2.60
2023-02-08T08:30:02.164Z,-2.50
2023-02-08T08:32:28.930Z,-2.50
2023-02-08T08:34:55.702Z,-2.50
2023-02-08T08:37:22.531Z,-2.50
2023-02-08T08:39:49.702Z,-2.40
2023-02-08T08:42:16.658Z,-2.30
2023-02-08T08:44:44.703Z,-2.30
2023-02-08T08:47:11.657Z,-2.20
2023-02-08T08:49:38.764Z,-2.20
2023-02-08T08:52:07.967Z,-2.10
2023-02-08T08:54:35.225Z,-2.10
2023-02-08T08:57:02.454Z,-2.00
2023-02-08T08:59:29.478Z,-2.00
2023-02-08T09:01:56.373Z,-1.90
2023-02-08T09:04:23.213Z,-1.90
2023-02-08T09:06:50.741Z,-2.00
2023-02-08T09:09:17.901Z,-1.90
2023-02-08T09:11:44.924Z,-1.90
2023-02-08T09:14:11.892Z,-1.90
2023-02-08T09:16:41.497Z,-1.80
2023-02-08T09:19:09.796Z,-1.80
2023-02-08T09:21:37.160Z,-1.60
2023-02-08T09:24:04.506Z,-1.70
2023-02-08T09:26:31.636Z,-1.60
2023-02-08T09:28:58.530Z,-1.50
2023-02-08T09:31:30.826Z,-1.50
2023-02-08T09:33:59.826Z,-1.50
2023-02-08T09:36:29.242Z,-1.40
2023-02-08T09:39:02.067Z,-1.40
2023-02-08T09:41:43.445Z,-1.40
2023-02-08T09:44:25.669Z,-1.30
2023-02-08T09:46:57.578Z,-1.30
2023-02-08T09:49:28.800Z,-1.20
2023-02-08T09:52:01.736Z,-1.20
2023-02-08T09:54:33.791Z,-1.20
2023-02-08T09:57:04.256Z,-1.20
2023-02-08T09:59:33.701Z,-1.10
2023-02-08T10:02:39.080Z,-0.90
2023-02-08T10:05:10.682Z,-0.80
2023-02-08T10:07:40.457Z,-0.80
2023-02-08T10:10:26.057Z,-0.70
2023-02-08T10:12:58.977Z,-0.60
2023-02-08T10:15:29.310Z,-0.50
2023-02-08T10:18:19.409Z,-0.40
2023-02-08T10:20:59.156Z,-0.40
2023-02-08T10:23:45.984Z,-0.30
2023-02-08T10:26:22.010Z,-0.20
2023-02-08T10:28:56.157Z,0.00
2023-02-08T10:31:35.120Z,0.10
2023-02-08T10:34:26.737Z,0.20
2023-02-08T10:36:53.610Z,0.10
2023-02-08T10:39:28.491Z,0.30
2023-02-08T10:41:55.415Z,0.40
2023-02-08T10:44:34.773Z,0.40
2023-02-08T10:47:17.576Z,0.40
2023-02-08T10:50:07.789Z,0.40
2023-02-08T10:52:34.669Z,0.50
2023-02-08T10:55:01.578Z,0.90
2023-02-08T10:57:31.238Z,0.90
2023-02-08T11:00:02.373Z,0.80
2023-02-08T11:02:33.163Z,0.80
2023-02-08T11:05:09.052Z,1.00
2023-02-08T11:07:36.792Z,1.10
2023-02-08T11:10:25.329Z,1.20
2023-02-08T11:12:55.201Z,1.30
2023-02-08T11:15:24.781Z,1.30
2023-02-08T11:18:02.299Z,1.40
2023-02-08T11:20:34.837Z,1.60
2023-02-08T11:23:01.995Z,1.60
2023-02-08T11:25:37.760Z,1.70
2023-02-08T11:28:05.802Z,1.70
2023-02-08T11:30:35.853Z,1.80
2023-02-08T11:33:18.534Z,1.80
2023-02-08T11:35:57.534Z,2.10
2023-02-08T11:38:28.335Z,2.10
2023-02-08T11:41:00.842Z,2.20
2023-02-08T11:43:31.495Z,2.20
2023-02-08T11:45:59.124Z,2.30
2023-02-08T11:48:34.504Z,2.30
2023-02-08T11:51:03.012Z,2.50
2023-02-08T11:53:38.569Z,2.70
2023-02-08T11:56:16.112Z,2.80
2023-02-08T11:58:49.864Z,2.80
2023-02-08T12:01:21.618Z,2.80
2023-02-08T12:03:50.710Z,3.00
2023-02-08T12:06:29.669Z,3.10
2023-02-08T12:09:34.050Z,3.10
2023-02-08T12:12:10.964Z,3.30
2023-02-08T12:14:51.721Z,3.50
2023-02-08T12:17:46.386Z,3.70
2023-02-08T12:20:19.322Z,3.70
2023-02-08T12:23:01.806Z,3.70
2023-02-08T12:25:44.494Z,3.80
2023-02-08T12:28:49.982Z,3.80
2023-02-08T12:31:33.064Z,4.00
2023-02-08T12:34:05.563Z,4.10
2023-02-08T12:37:18.699Z,4.30
2023-02-08T12:40:13.865Z,4.40
2023-02-08T12:43:14.884Z,4.70
2023-02-08T12:46:06.240Z,4.70
2023-02-08T12:48:54.838Z,4.90
2023-02-08T12:51:34.918Z,5.10
2023-02-08T12:54:10.014Z,5.30
2023-02-08T12:56:40.493Z,5.50
2023-02-08T12:59:13.874Z,5.40
2023-02-08T13:01:44.450Z,5.60
2023-02-08T13:04:18.501Z,5.70
2023-02-08T13:06:50.452Z,5.80
2023-02-08T13:09:35.555Z,6.00
2023-02-08T13:12:08.151Z,6.10
2023-02-08T13:14:55.011Z,6.20
2023-02-08T13:17:25.282Z,6.40
2023-02-08T13:20:08.039Z,6.60
2023-02-08T13:22:39.452Z,6.80
2023-02-08T13:25:15.580Z,6.90
2023-02-08T13:27:42.631Z,7.10
2023-02-08T13:30:18.051Z,7.30
2023-02-08T13:32:46.456Z,7.40
2023-02-08T13:35:19.213Z,7.70
2023-02-08T13:37:56.521Z,7.70
2023-02-08T13:40:29.819Z,7.90
2023-02-08T13:43:03.995Z,8.10
2023-02-08T13:45:36.951Z,8.20
2023-02-08T13:48:06.008Z,8.40
2023-02-08T13:50:47.539Z,8.50
2023-02-08T13:53:15.514Z,8.60
2023-02-08T13:55:54.559Z,9.00
2023-02-08T13:58:37.368Z,9.10
2023-02-08T14:01:20.509Z,9.30
2023-02-08T14:04:07.542Z,9.40
2023-02-08T14:06:43.600Z,9.70
2023-02-08T14:09:33.132Z,10.10
2023-02-08T14:12:06.780Z,10.20
2023-02-08T14:14:41.057Z,10.30
2023-02-08T14:17:17.263Z,10.50
2023-02-08T14:19:46.852Z,10.90
2023-02-08T14:22:13.628Z,10.90
2023-02-08T14:24:49.670Z,10.80
2023-02-08T14:27:22.632Z,10.90
2023-02-08T14:29:59.231Z,11.10
2023-02-08T14:32:28.802Z,11.20
2023-02-08T14:35:01.097Z,11.40
2023-02-08T14:37:31.278Z,11.50
2023-02-08T14:40:16.881Z,11.50
2023-02-08T14:42:52.755Z,11.60
2023-02-08T14:45:39.954Z,12.00
2023-02-08T14:48:26.402Z,12.30
2023-02-08T14:51:08.941Z,12.30
2023-02-08T14:53:54.538Z,12.50
2023-02-08T14:56:37.619Z,12.40
2023-02-08T14:59:21.247Z,12.10
2023-02-08T15:01:50.364Z,11.90
2023-02-08T15:04:20.592Z,11.70
2023-02-08T15:06:58.838Z,11.70
2023-02-08T15:09:29.273Z,11.70
2023-02-08T15:12:03.179Z,11.60
2023-02-08T15:14:31.744Z,11.60
2023-02-08T15:16:58.619Z,11.70
2023-02-08T15:19:39.525Z,11.70
2023-02-08T15:22:19.544Z,11.60
2023-02-08T15:24:54.108Z,11.50
2023-02-08T15:27:25.356Z,11.50
2023-02-08T15:29:52.347Z,11.40
2023-02-08T15:32:21.805Z,11.50
2023-02-08T15:35:02.062Z,11.50
2023-02-08T15:37:33.431Z,11.40
2023-02-08T15:40:01.473Z,11.30
2023-02-08T15:42:31.979Z,11.30
2023-02-08T15:45:00.660Z,11.40
2023-02-08T15:47:33.538Z,11.20
2023-02-08T15:50:00.767Z,11.30
2023-02-08T15:52:34.487Z,12.90
2023-02-08T15:55:01.447Z,13.00
2023-02-08T15:57:36.619Z,13.90
2023-02-08T16:00:26.222Z,14.30
2023-02-08T16:02:59.638Z,14.60
2023-02-08T16:05:29.051Z,14.50
2023-02-08T16:07:56.266Z,14.50
2023-02-08T16:10:29.240Z,14.60
2023-02-08T16:12:59.030Z,14.80
2023-02-08T16:15:40.449Z,14.70
2023-02-08T16:18:35.011Z,13.20
2023-02-08T16:21:05.392Z,12.20
2023-02-08T16:23:33.991Z,11.70
2023-02-08T16:26:23.614Z,11.40
2023-02-08T16:28:59.034Z,11.20
2023-02-08T16:31:29.477Z,11.10
2023-02-08T16:34:08.061Z,11.10
2023-02-08T16:36:39.140Z,11.00
2023-02-08T16:39:16.158Z,10.80
2023-02-08T16:42:06.427Z,10.70
2023-02-08T16:44:58.040Z,10.70
2023-02-08T16:47:28.061Z,10.70
2023-02-08T16:49:54.969Z,10.50
2023-02-08T16:52:21.952Z,10.50
2023-02-08T16:54:48.844Z,10.50
2023-02-08T16:57:15.709Z,10.40
2023-02-08T16:59:42.563Z,10.20
2023-02-08T17:02:13.003Z,10.10
2023-02-08T17:04:40.381Z,9.90
2023-02-08T17:07:12.705Z,9.90
2023-02-08T17:09:39.537Z,9.80
2023-02-08T17:12:21.560Z,9.90
2023-02-08T17:14:48.932Z,9.80
2023-02-08T17:17:15.876Z,9.70
2023-02-08T17:19:44.513Z,9.70
2023-02-08T17:22:11.273Z,9.50
2023-02-08T17:24:39.319Z,9.40
2023-02-08T17:27:06.686Z,9.20
2023-02-08T17:29:33.454Z,9.20
2023-02-08T17:32:00.448Z,9.20
2023-02-08T17:34:27.749Z,9.10
2023-02-08T17:36:54.616Z,9.10
2023-02-08T17:39:21.421Z,8.90
2023-02-08T17:41:48.213Z,8.90
2023-02-08T17:44:15.272Z,8.70
2023-02-08T17:46:42.640Z,8.60
2023-02-08T17:49:09.485Z,8.40
2023-02-08T17:51:36.314Z,8.40
2023-02-08T17:54:05.045Z,8.40
2023-02-08T17:56:35.447Z,8.30
2023-02-08T17:59:05.549Z,8.30
2023-02-08T18:01:33.075Z,8.30
2023-02-08T18:04:00.834Z,8.10
2023-02-08T18:06:28.874Z,8.10
2023-02-08T18:08:55.972Z,8.10
2023-02-08T18:11:23.979Z,8.10
2023-02-08T18:13:53.255Z,8.00
2023-02-08T18:16:25.952Z,8.10
2023-02-08T18:18:57.443Z,8.00
2023-02-08T18:21:25.885Z,7.90
2023-02-08T18:23:53.408Z,7.80
2023-02-08T18:26:22.163Z,7.70
2023-02-08T18:28:49.014Z,7.70
2023-02-08T18:31:20.102Z,7.60
2023-02-08T18:33:47.970Z,7.60
2023-02-08T18:36:15.802Z,7.50
2023-02-08T18:38:45.725Z,7.50
2023-02-08T18:41:18.728Z,7.40
2023-02-08T18:43:46.304Z,7.40
2023-02-08T18:46:20.356Z,7.30
2023-02-08T18:48:47.962Z,7.30
2023-02-08T18:51:18.617Z,7.20
2023-02-08T18:53:51.313Z,7.10
2023-02-08T18:56:21.559Z,7.00
2023-02-08T18:58:48.617Z,7.00
2023-02-08T19:01:18.311Z,6.80
2023-02-08T19:03:45.612Z,6.70
2023-02-08T19:06:15.212Z,6.60
2023-02-08T19:08:43.856Z,6.60
2023-02-08T19:11:19.895Z,6.50
2023-02-08T19:13:47.677Z,6.40
2023-02-08T19:16:15.655Z,6.30
2023-02-08T19:18:42.560Z,6.20
2023-02-08T19:21:13.002Z,6.00
2023-02-08T19:23:40.262Z,5.70
2023-02-08T19:26:16.422Z,5.50
2023-02-08T19:28:43.230Z,5.50
2023-02-08T19:31:15.321Z,5.50
2023-02-08T19:33:45.715Z,5.50
2023-02-08T19:36:15.185Z,5.40
2023-02-08T19:38:42.420Z,5.20
2023-02-08T19:41:13.424Z,5.20
2023-02-08T19:43:40.256Z,5.10
2023-02-08T19:46:20.249Z,5.20
2023-02-08T19:48:47.073Z,5.10
2023-02-08T19:51:13.984Z,5.10
2023-02-08T19:53:40.990Z,5.10
2023-02-08T19:56:10.924Z,5.10
2023-02-08T19:58:38.132Z,5.00
2023-02-08T20:01:16.283Z,4.80
2023-02-08T20:03:43.316Z,4.60
2023-02-08T20:06:21.464Z,4.50
2023-02-08T20:08:51.693Z,4.60
2023-02-08T20:11:26.877Z,4.60
2023-02-08T20:13:54.956Z,4.60
2023-02-08T20:16:22.123Z,4.60
2023-02-08T20:18:49.729Z,4.30
2023-02-08T20:21:17.071Z,4.40
2023-02-08T20:23:44.416Z,4.40
2023-02-08T20:26:13.323Z,4.40
2023-02-08T20:28:44.427Z,4.50
2023-02-08T20:31:29.450Z,4.40
2023-02-08T20:33:59.814Z,4.30
2023-02-08T20:36:28.757Z,4.20
2023-02-08T20:38:57.473Z,4.20
2023-02-08T20:41:26.740Z,4.10
2023-02-08T20:43:54.246Z,4.10
2023-02-08T20:46:24.442Z,4.10
2023-02-08T20:48:52.243Z,4.00
2023-02-08T20:51:21.425Z,3.90
2023-02-08T20:53:49.168Z,3.80
2023-02-08T20:56:18.378Z,3.70
2023-02-08T20:58:45.603Z,3.70
2023-02-08T21:01:15.601Z,3.70
2023-02-08T21:03:43.133Z,3.60
2023-02-08T21:06:15.280Z,3.50
2023-02-08T21:08:42.706Z,3.50
2023-02-08T21:11:10.487Z,3.50
2023-02-08T21:13:37.936Z,3.40
2023-02-08T21:16:06.890Z,3.30
2023-02-08T21:18:34.075Z,3.10
2023-02-08T21:21:01.360Z,2.90
2023-02-08T21:23:28.597Z,2.80
2023-02-08T21:25:55.554Z,2.80
2023-02-08T21:28:22.612Z,2.80
2023-02-08T21:31:00.732Z,2.90
2023-02-08T21:33:28.221Z,2.90
2023-02-08T21:35:55.206Z,2.80
2023-02-08T21:38:22.474Z,2.70
2023-02-08T21:40:49.321Z,2.80
2023-02-08T21:43:16.109Z,2.70
2023-02-08T21:45:42.995Z,2.60
2023-02-08T21:48:09.836Z,2.60
2023-02-08T21:50:57.251Z,2.60
2023-02-08T21:53:53.392Z,2.60
2023-02-08T21:56:20.365Z,2.60
2023-02-08T21:58:47.152Z,2.50
2023-02-08T22:01:14.039Z,2.50
2023-02-08T22:03:40.865Z,2.40
2023-02-08T22:06:26.286Z,2.40
2023-02-08T22:08:53.048Z,2.30
2023-02-08T22:11:19.844Z,2.30
2023-02-08T22:13:46.582Z,2.20
2023-02-08T22:16:13.466Z,2.20
2023-02-08T22:18:41.490Z,2.10
2023-02-08T22:21:08.588Z,2.10
2023-02-08T22:23:35.480Z,1.90
2023-02-08T22:26:07.732Z,1.90
2023-02-08T22:28:35.050Z,1.80
2023-02-08T22:31:02.813Z,1.80
2023-02-08T22:33:30.027Z,1.80
2023-02-08T22:35:56.863Z,1.80
2023-02-08T22:38:24.679Z,1.70
2023-02-08T22:40:51.526Z,1.70
2023-02-08T22:43:18.311Z,1.70
2023-02-08T22:45:45.217Z,1.70
2023-02-08T22:48:12.005Z,1.60
2023-02-08T22:50:39.026Z,1.60
2023-02-08T22:53:05.910Z,1.50
2023-02-08T22:55:32.669Z,1.50
2023-02-08T22:57:59.467Z,1.50
2023-02-08T23:00:26.292Z,1.50
2023-02-08T23:02:53.098Z,1.40
2023-02-08T23:05:19.899Z,1.40
2023-02-08T23:07:46.673Z,1.30
2023-02-08T23:10:13.744Z,1.30
2023-02-08T23:12:40.584Z,1.20
2023-02-08T23:15:07.681Z,1.20
2023-02-08T23:17:35.819Z,1.10
2023-02-08T23:20:02.899Z,1.10
2023-02-08T23:22:29.660Z,1.10
2023-02-08T23:24:56.470Z,1.10
2023-02-08T23:27:23.294Z,1.00
2023-02-08T23:29:50.057Z,1.00
2023-02-08T23:32:16.958Z,0.90
2023-02-08T23:34:43.790Z,0.90
2023-02-08T23:37:10.654Z,0.80
2023-02-08T23:39:37.560Z,0.80
2023-02-08T23:42:04.608Z,0.80
2023-02-08T23:44:31.522Z,0.70
2023-02-08T23:46:58.330Z,0.70
2023-02-08T23:49:25.256Z,0.70
2023-02-08T23:51:53.175Z,0.70
2023-02-08T23:54:19.980Z,0.70
2023-02-08T23:56:46.724Z,0.60
2023-02-08T23:59:13.527Z,0.60
